BEO weather

Lake Macquarie Airport
New South Wales, Australia

Public forecast

Using degrees Celsius for public forecast. Weather courtesy of forecast.io.

METAR (pilot weather report)

Closest report is Newcastle Airport, 18.8 nm (34.8 km) NNE. Retrieved 2019/04/25 08:00 UTC (7 minutes ago):

YWLM 250800Z AUTO 06006KT 9999 // NCD 21/17 Q1017

TAF (pilot weather forecast)

Closest forecast is Newcastle Airport, 18.8 nm (34.8 km) NNE. Retrieved 2019/04/25 06:36 UTC (2 hours ago):

TAF YWLM 250459Z 2506/2606 09010KT CAVOK FM251000 03005KT CAVOK FM251400 33005KT CAVOK FM252200 30010KT CAVOK FM260200 28014KT CAVOK PROB30 2516/2522 2000 BR SCT001